createdAt,value
2019-01-06T03:53:20.080Z,0.00
2019-01-06T03:54:10.149Z,0.00
2019-01-06T03:55:15.282Z,0.00
2019-01-06T04:02:25.380Z,0.00
2019-01-06T04:03:30.463Z,0.00
2019-01-06T04:04:01.300Z,0.00
2019-01-06T04:05:04.000Z,0.00
2019-01-06T04:06:02.442Z,0.00
2019-01-06T04:08:58.981Z,0.00
2019-01-06T04:11:16.132Z,0.00
2019-01-06T04:12:11.513Z,0.00
2019-01-06T04:13:08.274Z,0.00
2019-01-06T04:14:29.454Z,0.00
2019-01-06T04:15:34.452Z,0.00
2019-01-06T04:16:13.931Z,0.00
2019-01-06T04:18:52.005Z,0.00
2019-01-06T04:19:41.535Z,0.00
2019-01-06T04:21:03.454Z,0.00
2019-01-06T04:21:44.962Z,0.00
2019-01-06T04:24:55.016Z,0.00
2019-01-06T04:25:37.509Z,0.00
2019-01-06T04:26:21.181Z,0.00
2019-01-06T04:27:38.224Z,0.00
2019-01-06T04:32:11.683Z,0.00
2019-01-06T04:32:28.136Z,0.00
2019-01-06T04:36:38.487Z,0.00
2019-01-06T04:37:36.175Z,0.00
2019-01-06T04:43:36.496Z,0.00
2019-01-06T04:44:09.512Z,0.00
2019-01-06T04:52:31.492Z,0.00
2019-01-06T04:53:31.531Z,0.00
2019-01-06T04:54:29.385Z,0.00
2019-01-06T04:55:53.261Z,0.00
2019-01-06T04:56:52.266Z,0.00
2019-01-06T04:57:59.260Z,0.00
2019-01-06T04:58:53.860Z,0.00
2019-01-06T04:59:35.212Z,0.00
2019-01-06T05:00:33.338Z,0.00
2019-01-06T05:01:51.768Z,0.00
2019-01-06T05:03:07.032Z,0.00
2019-01-06T05:03:35.818Z,0.00
2019-01-06T05:04:53.763Z,0.00
2019-01-06T05:05:38.586Z,0.00
2019-01-06T05:08:09.976Z,0.00
2019-01-06T05:11:04.651Z,0.00
2019-01-06T05:11:58.148Z,0.00
2019-01-06T05:13:09.209Z,0.00
2019-01-06T05:13:40.604Z,0.00
2019-01-06T05:15:00.870Z,0.00
2019-01-06T05:15:43.600Z,0.00
2019-01-06T05:16:43.657Z,0.00
2019-01-06T05:21:20.000Z,0.00
2019-01-06T05:21:49.980Z,0.00
2019-01-06T05:23:09.115Z,0.00
2019-01-06T05:39:34.924Z,0.00
2019-01-06T05:40:22.386Z,0.00
2019-01-06T05:41:56.365Z,0.00
2019-01-06T05:42:20.595Z,0.00
2019-01-06T05:46:42.522Z,0.00
2019-01-06T05:55:23.422Z,0.00
2019-01-06T06:02:37.166Z,0.00
2019-01-06T06:03:57.870Z,0.00
2019-01-06T06:04:33.298Z,0.00
2019-01-06T06:06:02.419Z,0.00
2019-01-06T06:08:09.393Z,0.00
2019-01-06T06:09:31.370Z,0.00
2019-01-06T06:10:33.931Z,0.00
2019-01-06T06:14:12.665Z,0.00
2019-01-06T06:15:01.389Z,0.00
2019-01-06T06:23:42.523Z,0.00
2019-01-06T06:26:19.689Z,0.00
2019-01-06T06:27:11.247Z,0.00
2019-01-06T06:28:01.711Z,0.00
2019-01-06T06:29:20.645Z,0.00
2019-01-06T06:30:14.156Z,0.00
2019-01-06T06:30:58.147Z,0.00
2019-01-06T06:40:01.104Z,0.00
2019-01-06T06:40:59.005Z,0.00
2019-01-06T06:41:37.630Z,0.00
2019-01-06T06:42:52.619Z,0.00
2019-01-06T06:43:53.580Z,0.00
2019-01-06T06:44:41.060Z,0.00
2019-01-06T06:45:40.159Z,0.00
2019-01-06T06:46:52.667Z,0.00
2019-01-06T06:48:00.078Z,0.00
2019-01-06T06:49:01.605Z,0.00
2019-01-06T06:53:21.439Z,0.00
2019-01-06T06:54:02.464Z,0.00
2019-01-06T07:33:43.001Z,11.25
2019-01-06T07:34:28.043Z,11.25
2019-01-06T07:38:44.870Z,11.25
2019-01-06T07:39:46.016Z,16.88
2019-01-06T07:40:47.079Z,16.88
2019-01-06T07:41:35.480Z,16.88
2019-01-06T07:42:40.043Z,16.88
2019-01-06T07:43:34.350Z,16.88
2019-01-06T07:44:34.059Z,22.50
2019-01-06T07:45:55.031Z,22.50
2019-01-06T07:46:33.082Z,22.50
2019-01-06T07:49:26.424Z,22.50
2019-01-06T07:50:14.660Z,22.50
2019-01-06T07:51:08.267Z,22.50
2019-01-06T07:52:08.290Z,28.13
2019-01-06T07:53:08.511Z,28.13
2019-01-06T07:56:08.814Z,33.75
2019-01-06T07:58:19.581Z,33.75
2019-01-06T07:59:09.755Z,33.75
2019-01-06T07:59:41.913Z,33.75
2019-01-06T08:00:41.626Z,33.75
2019-01-06T08:01:40.517Z,33.75
2019-01-06T08:03:03.105Z,33.75
2019-01-06T08:03:53.739Z,33.75
2019-01-06T08:04:46.373Z,39.38
2019-01-06T08:05:41.527Z,39.38
2019-01-06T08:07:01.617Z,39.38
2019-01-06T08:08:08.564Z,45.00
2019-01-06T08:08:56.073Z,45.00
2019-01-06T08:09:44.874Z,45.00
2019-01-06T08:10:44.675Z,45.00
2019-01-06T08:11:39.836Z,45.00
2019-01-06T08:12:44.580Z,45.00
2019-01-06T08:13:41.186Z,45.00
2019-01-06T08:14:43.970Z,50.63
2019-01-06T08:15:43.822Z,56.25
2019-01-06T08:20:18.996Z,56.25
2019-01-06T08:28:35.590Z,67.50
2019-01-06T08:29:22.528Z,67.50
2019-01-06T08:45:23.227Z,90.00
2019-01-06T08:53:24.786Z,106.88
2019-01-06T08:53:51.043Z,112.50
2019-01-06T08:54:49.996Z,112.50
2019-01-06T08:58:40.267Z,106.88
2019-01-06T08:59:16.279Z,101.25
2019-01-06T09:04:18.391Z,118.13
2019-01-06T09:06:05.757Z,118.13
2019-01-06T09:08:50.405Z,123.75
2019-01-06T09:10:01.396Z,129.38
2019-01-06T09:12:04.382Z,135.00
2019-01-06T09:13:21.472Z,135.00
2019-01-06T09:13:59.540Z,135.00
2019-01-06T09:15:02.002Z,135.00
2019-01-06T09:16:19.368Z,135.00
2019-01-06T09:20:45.622Z,106.88
2019-01-06T09:53:39.700Z,202.50
2019-01-06T09:54:38.592Z,213.75
2019-01-06T09:55:42.052Z,213.75
2019-01-06T09:56:37.066Z,208.13
2019-01-06T09:57:39.807Z,208.13
2019-01-06T09:58:59.615Z,219.38
2019-01-06T09:59:37.237Z,230.63
2019-01-06T10:00:36.997Z,230.63
2019-01-06T10:03:27.817Z,225.00
2019-01-06T10:04:14.065Z,225.00
2019-01-06T10:06:49.628Z,191.25
2019-01-06T10:07:47.152Z,185.63
2019-01-06T10:08:48.914Z,185.63
2019-01-06T10:10:02.108Z,174.38
2019-01-06T10:12:25.791Z,157.50
2019-01-06T10:13:18.234Z,163.13
2019-01-06T10:14:17.402Z,163.13
2019-01-06T10:15:41.999Z,151.88
2019-01-06T10:16:37.569Z,151.88
2019-01-06T10:17:23.855Z,151.88
2019-01-06T10:18:20.668Z,163.13
2019-01-06T10:19:17.818Z,180.00
2019-01-06T10:20:24.263Z,191.25
2019-01-06T10:21:38.487Z,208.13
2019-01-06T10:22:18.347Z,202.50
2019-01-06T10:23:19.721Z,213.75
2019-01-06T10:24:18.707Z,219.38
2019-01-06T10:25:19.735Z,230.63
2019-01-06T10:26:19.195Z,225.00
2019-01-06T10:27:20.382Z,219.38
2019-01-06T10:28:21.258Z,208.13
2019-01-06T10:29:19.815Z,180.00
2019-01-06T10:30:20.801Z,157.50
2019-01-06T10:31:19.741Z,168.75
2019-01-06T10:32:19.323Z,168.75
2019-01-06T10:33:24.672Z,174.38
2019-01-06T10:34:44.772Z,180.00
2019-01-06T10:35:20.790Z,180.00
2019-01-06T10:36:22.794Z,163.13
2019-01-06T10:39:13.706Z,140.63
2019-01-06T10:39:53.525Z,146.25
2019-01-06T10:40:56.390Z,140.63
2019-01-06T10:41:55.492Z,146.25
2019-01-06T10:42:52.939Z,151.88
2019-01-06T10:43:53.072Z,163.13
2019-01-06T10:44:55.954Z,157.50
2019-01-06T10:45:54.907Z,146.25
2019-01-06T10:46:54.432Z,140.63
2019-01-06T10:47:57.100Z,129.38
2019-01-06T10:48:53.834Z,129.38
2019-01-06T10:49:56.631Z,123.75
2019-01-06T10:50:54.905Z,123.75
2019-01-06T10:51:54.903Z,123.75
2019-01-06T10:52:56.060Z,129.38
2019-01-06T10:53:53.389Z,140.63
2019-01-06T10:54:53.664Z,140.63
2019-01-06T10:55:55.394Z,135.00
2019-01-06T10:56:55.905Z,135.00
2019-01-06T10:57:54.100Z,129.38
2019-01-06T10:58:54.323Z,129.38
2019-01-06T10:59:54.517Z,135.00
2019-01-06T11:00:54.738Z,135.00
2019-01-06T11:01:54.961Z,140.63
2019-01-06T11:02:56.111Z,140.63
2019-01-06T11:03:57.177Z,140.63
2019-01-06T11:04:55.583Z,135.00
2019-01-06T11:05:56.392Z,129.38
2019-01-06T11:06:55.737Z,129.38
2019-01-06T11:07:57.639Z,146.25
2019-01-06T11:08:59.907Z,168.75
2019-01-06T11:09:57.235Z,191.25
2019-01-06T11:11:04.459Z,219.38
2019-01-06T11:11:57.690Z,236.25
2019-01-06T11:12:56.954Z,253.13
2019-01-06T11:13:58.909Z,264.38
2019-01-06T11:14:58.903Z,275.63
2019-01-06T11:16:00.895Z,298.13
2019-01-06T11:17:01.393Z,298.13
2019-01-06T11:17:57.599Z,270.00
2019-01-06T11:18:59.342Z,241.88
2019-01-06T11:19:59.927Z,213.75
2019-01-06T11:21:20.155Z,196.88
2019-01-06T11:22:05.940Z,196.88
2019-01-06T11:23:02.161Z,208.13
2019-01-06T11:23:59.638Z,213.75
2019-01-06T11:25:00.915Z,236.25
2019-01-06T11:26:02.890Z,270.00
2019-01-06T11:27:14.897Z,343.13
2019-01-06T11:28:03.397Z,405.00
2019-01-06T11:29:03.604Z,438.75
2019-01-06T11:30:01.409Z,438.75
2019-01-06T11:31:02.855Z,410.63
2019-01-06T11:32:06.912Z,399.38
2019-01-06T11:33:01.389Z,388.13
2019-01-06T11:34:02.436Z,348.75
2019-01-06T11:35:02.446Z,309.38
2019-01-06T11:36:04.895Z,275.63
2019-01-06T11:37:23.924Z,275.63
2019-01-06T11:38:01.566Z,298.13
2019-01-06T11:39:01.591Z,315.00
2019-01-06T11:40:08.446Z,331.88
2019-01-06T11:41:07.957Z,331.88
2019-01-06T11:42:02.114Z,320.63
2019-01-06T11:43:02.190Z,365.63
2019-01-06T11:44:03.908Z,421.88
2019-01-06T11:45:04.437Z,444.38
2019-01-06T11:46:03.393Z,388.13
2019-01-06T11:47:02.989Z,298.13
2019-01-06T11:48:03.208Z,298.13
2019-01-06T11:49:03.418Z,281.25
2019-01-06T11:50:03.627Z,258.75
2019-01-06T11:51:05.411Z,264.38
2019-01-06T11:52:07.943Z,281.25
2019-01-06T11:53:04.213Z,286.88
2019-01-06T11:54:08.743Z,270.00
2019-01-06T11:55:07.367Z,298.13
2019-01-06T11:56:12.396Z,298.13
2019-01-06T11:57:06.424Z,315.00
2019-01-06T11:58:06.073Z,365.63
2019-01-06T11:59:05.112Z,388.13
2019-01-06T12:00:06.904Z,365.63
2019-01-06T12:01:05.481Z,303.75
2019-01-06T12:02:07.404Z,270.00
2019-01-06T12:03:21.433Z,247.50
2019-01-06T12:04:06.082Z,230.63
2019-01-06T12:05:07.366Z,208.13
2019-01-06T12:06:06.454Z,202.50
2019-01-06T12:07:08.425Z,213.75
2019-01-06T12:08:08.429Z,219.38
2019-01-06T12:09:31.915Z,219.38
2019-01-06T12:10:15.894Z,219.38
2019-01-06T12:11:11.404Z,213.75
2019-01-06T12:12:12.426Z,219.38
2019-01-06T12:13:09.395Z,219.38
2019-01-06T12:14:07.876Z,219.38
2019-01-06T12:15:09.896Z,213.75
2019-01-06T12:16:09.778Z,213.75
2019-01-06T12:17:08.536Z,208.13
2019-01-06T12:18:12.403Z,196.88
2019-01-06T12:19:09.880Z,180.00
2019-01-06T12:20:10.361Z,168.75
2019-01-06T12:21:10.904Z,163.13
2019-01-06T12:22:11.854Z,163.13
2019-01-06T12:23:12.426Z,157.50
2019-01-06T12:24:11.382Z,146.25
2019-01-06T12:25:12.902Z,135.00
2019-01-06T12:26:46.895Z,123.75
2019-01-06T12:27:12.850Z,123.75
2019-01-06T12:28:36.450Z,123.75
2019-01-06T12:29:12.409Z,123.75
2019-01-06T12:30:14.399Z,140.63
2019-01-06T12:31:12.947Z,146.25
2019-01-06T12:32:11.179Z,140.63
2019-01-06T12:33:13.965Z,146.25
2019-01-06T12:34:12.358Z,140.63
2019-01-06T12:35:12.352Z,140.63
2019-01-06T12:36:15.898Z,168.75
2019-01-06T12:37:12.136Z,202.50
2019-01-06T12:38:37.878Z,191.25
2019-01-06T12:39:14.399Z,185.63
2019-01-06T12:40:16.398Z,151.88
2019-01-06T12:41:15.389Z,174.38
2019-01-06T12:42:20.448Z,163.13
2019-01-06T12:43:14.912Z,151.88
2019-01-06T12:44:44.382Z,146.25
2019-01-06T12:45:24.487Z,163.13
2019-01-06T12:46:16.355Z,191.25
2019-01-06T12:47:15.766Z,180.00
2019-01-06T12:48:15.866Z,180.00
2019-01-06T12:49:37.358Z,191.25
2019-01-06T12:50:31.356Z,191.25
2019-01-06T12:51:17.917Z,208.13
2019-01-06T12:52:14.503Z,241.88
2019-01-06T12:53:18.353Z,298.13
2019-01-06T12:54:16.940Z,320.63
2019-01-06T12:55:17.856Z,281.25
2019-01-06T12:56:19.209Z,270.00
2019-01-06T12:57:44.359Z,241.88
2019-01-06T12:58:17.582Z,270.00
2019-01-06T12:59:24.367Z,258.75
2019-01-06T13:00:19.908Z,247.50
2019-01-06T13:01:17.917Z,225.00
2019-01-06T13:02:17.960Z,213.75
2019-01-06T13:03:18.416Z,230.63
2019-01-06T13:04:20.402Z,309.38
2019-01-06T13:05:17.899Z,461.25
2019-01-06T13:06:18.867Z,579.38
2019-01-06T13:07:41.898Z,669.38
2019-01-06T13:08:19.551Z,787.50
2019-01-06T13:09:19.446Z,838.13
2019-01-06T13:10:33.401Z,911.25
2019-01-06T13:11:18.838Z,1068.75
2019-01-06T13:12:19.919Z,1580.63
2019-01-06T13:13:21.922Z,916.88
2019-01-06T13:14:19.424Z,866.25
2019-01-06T13:15:20.432Z,1220.63
2019-01-06T13:16:19.652Z,995.63
2019-01-06T13:17:20.445Z,2520.00
2019-01-06T13:18:20.914Z,2520.00
2019-01-06T13:19:22.901Z,2525.63
2019-01-06T13:20:19.376Z,1805.63
2019-01-06T13:21:19.578Z,450.00
2019-01-06T13:22:22.365Z,309.38
2019-01-06T13:23:26.976Z,270.00
2019-01-06T13:24:21.126Z,275.63
2019-01-06T13:25:20.352Z,298.13
2019-01-06T13:26:24.402Z,337.50
2019-01-06T13:27:20.739Z,376.88
2019-01-06T13:28:20.882Z,320.63
2019-01-06T13:29:22.082Z,331.88
2019-01-06T13:30:49.929Z,360.00
2019-01-06T13:31:22.908Z,376.88
2019-01-06T13:32:24.436Z,421.88
2019-01-06T13:33:23.411Z,371.25
2019-01-06T13:34:22.906Z,292.50
2019-01-06T13:35:45.861Z,241.88
2019-01-06T13:36:25.868Z,202.50
2019-01-06T13:37:23.908Z,191.25
2019-01-06T13:38:28.432Z,168.75
2019-01-06T13:39:24.451Z,146.25
2019-01-06T13:40:22.791Z,157.50
2019-01-06T13:41:24.948Z,157.50
2019-01-06T13:42:23.179Z,168.75
2019-01-06T13:43:23.387Z,174.38
2019-01-06T13:44:26.384Z,168.75
2019-01-06T13:45:25.401Z,168.75
2019-01-06T13:46:30.955Z,185.63
2019-01-06T13:47:25.907Z,196.88
2019-01-06T13:48:26.858Z,219.38
2019-01-06T13:49:40.424Z,202.50
2019-01-06T13:50:26.398Z,180.00
2019-01-06T13:51:26.406Z,151.88
2019-01-06T13:52:29.857Z,123.75
2019-01-06T13:53:28.957Z,106.88
2019-01-06T13:54:31.441Z,95.63
2019-01-06T13:55:28.493Z,95.63
2019-01-06T13:56:27.421Z,90.00
2019-01-06T13:57:27.013Z,84.38
2019-01-06T13:58:27.265Z,73.13
2019-01-06T13:59:33.916Z,84.38
2019-01-06T14:00:39.422Z,95.63
2019-01-06T14:01:42.412Z,84.38
2019-01-06T14:02:39.635Z,67.50
2019-01-06T14:03:30.913Z,67.50
2019-01-06T14:04:39.144Z,67.50
2019-01-06T14:05:29.886Z,67.50
2019-01-06T14:06:28.363Z,73.13
2019-01-06T14:07:27.759Z,84.38
2019-01-06T14:08:30.405Z,95.63
2019-01-06T14:09:31.910Z,101.25
2019-01-06T14:10:31.909Z,106.88
2019-01-06T14:11:40.375Z,129.38
2019-01-06T14:12:29.404Z,140.63
2019-01-06T14:13:44.421Z,135.00
2019-01-06T14:14:30.404Z,135.00
2019-01-06T14:15:33.855Z,135.00
2019-01-06T14:16:44.910Z,140.63
2019-01-06T14:17:32.914Z,123.75
2019-01-06T14:18:32.417Z,151.88
2019-01-06T14:19:34.417Z,157.50
2019-01-06T14:20:29.899Z,157.50
2019-01-06T14:21:46.114Z,157.50
2019-01-06T14:22:33.920Z,157.50
2019-01-06T14:23:33.858Z,168.75
2019-01-06T14:24:32.445Z,163.13
2019-01-06T14:25:32.469Z,151.88
2019-01-06T14:26:43.865Z,140.63
2019-01-06T14:27:32.949Z,151.88
2019-01-06T14:28:54.871Z,157.50
2019-01-06T14:29:33.556Z,163.13
2019-01-06T14:30:32.699Z,168.75
2019-01-06T14:31:35.430Z,146.25
2019-01-06T14:32:33.943Z,140.63
2019-01-06T14:33:33.950Z,140.63
2019-01-06T14:34:34.002Z,129.38
2019-01-06T14:35:40.364Z,118.13
2019-01-06T14:36:33.728Z,118.13
2019-01-06T14:37:37.864Z,118.13
2019-01-06T14:38:33.941Z,112.50
2019-01-06T14:39:36.908Z,112.50
2019-01-06T14:40:34.957Z,112.50
2019-01-06T14:43:23.949Z,95.63
2019-01-06T14:44:12.425Z,101.25
2019-01-06T14:45:11.961Z,95.63
2019-01-06T14:49:40.595Z,95.63
2019-01-06T14:50:19.546Z,84.38
2019-01-06T14:51:11.195Z,78.75
2019-01-06T14:52:11.976Z,84.38
2019-01-06T14:53:11.877Z,95.63
2019-01-06T14:54:19.566Z,95.63
2019-01-06T14:55:15.866Z,90.00
2019-01-06T14:56:14.438Z,78.75
2019-01-06T14:57:28.033Z,67.50
2019-01-06T14:58:20.523Z,61.88
2019-01-06T14:59:12.795Z,50.63
2019-01-06T15:00:12.979Z,45.00
2019-01-06T15:01:16.085Z,39.38
2019-01-06T15:02:15.079Z,39.38
2019-01-06T15:03:13.363Z,33.75
2019-01-06T15:04:13.654Z,33.75
2019-01-06T15:05:13.779Z,28.13
2019-01-06T15:06:13.951Z,22.50
2019-01-06T15:07:14.983Z,22.50
2019-01-06T15:08:16.051Z,16.88
2019-01-06T15:09:15.596Z,16.88
2019-01-06T15:10:16.641Z,16.88
2019-01-06T15:11:16.539Z,16.88
2019-01-06T15:12:16.528Z,16.88
2019-01-06T15:13:16.187Z,16.88
2019-01-06T15:14:17.032Z,16.88
2019-01-06T15:15:17.046Z,16.88
2019-01-06T15:16:15.385Z,16.88
2019-01-06T15:17:17.616Z,11.25
2019-01-06T15:18:15.741Z,11.25
2019-01-06T15:19:31.523Z,11.25
2019-01-06T15:20:19.041Z,11.25
2019-01-06T15:21:16.247Z,11.25
2019-01-06T15:22:20.023Z,11.25
2019-01-06T15:23:18.565Z,11.25
2019-01-06T15:24:19.545Z,11.25
2019-01-06T15:25:16.991Z,5.63
2019-01-06T15:26:21.024Z,5.63
2019-01-06T15:27:21.040Z,5.63
2019-01-06T15:28:19.035Z,11.25
2019-01-06T15:29:20.608Z,5.63
2019-01-06T15:30:17.835Z,5.63
2019-01-06T15:31:22.027Z,5.63
2019-01-06T15:32:20.090Z,5.63
2019-01-06T15:33:18.418Z,5.63
2019-01-06T15:34:21.004Z,5.63
2019-01-06T15:35:20.536Z,5.63
2019-01-06T15:36:23.264Z,0.00
2019-01-06T15:37:20.487Z,0.00
2019-01-06T15:38:21.029Z,0.00
2019-01-06T15:39:19.269Z,0.00
2019-01-06T15:40:19.461Z,0.00
2019-01-06T15:41:21.529Z,0.00
2019-01-06T15:42:27.583Z,0.00
2019-01-06T15:43:21.534Z,0.00
2019-01-06T15:44:21.230Z,0.00
2019-01-06T15:45:22.046Z,0.00
2019-01-06T15:46:23.576Z,0.00
2019-01-06T15:47:23.501Z,0.00
2019-01-06T15:48:28.531Z,0.00
2019-01-06T15:49:23.034Z,0.00
2019-01-06T15:50:21.282Z,0.00
2019-01-06T15:51:23.078Z,0.00
2019-01-06T15:52:21.492Z,0.00
2019-01-06T15:53:26.275Z,0.00
2019-01-06T15:54:22.018Z,0.00
2019-01-06T15:55:45.024Z,0.00
2019-01-06T15:56:26.024Z,0.00
2019-01-06T15:57:22.362Z,0.00
2019-01-06T15:58:24.554Z,0.00
2019-01-06T15:59:24.542Z,0.00
2019-01-06T16:00:24.654Z,0.00
2019-01-06T16:01:23.106Z,0.00
2019-01-06T16:02:25.045Z,0.00
2019-01-06T16:03:25.092Z,0.00
2019-01-06T16:04:23.646Z,0.00
2019-01-06T16:05:35.698Z,0.00
2019-01-06T16:06:39.524Z,0.00
2019-01-06T16:07:28.024Z,0.00
2019-01-06T16:08:24.388Z,0.00
2019-01-06T16:09:25.492Z,0.00
2019-01-06T16:10:24.704Z,0.00
2019-01-06T16:11:24.918Z,0.00
2019-01-06T16:12:25.114Z,0.00
2019-01-06T16:13:25.335Z,0.00
2019-01-06T16:14:26.545Z,0.00
2019-01-06T16:15:27.556Z,0.00
2019-01-06T16:16:33.538Z,0.00
2019-01-06T16:17:59.135Z,0.00
2019-01-06T16:18:28.056Z,0.00
2019-01-06T16:19:26.394Z,0.00
2019-01-06T16:20:26.650Z,0.00
2019-01-06T16:21:32.576Z,0.00
2019-01-06T16:22:26.921Z,0.00
2019-01-06T16:23:29.030Z,0.00
2019-01-06T16:24:28.393Z,0.00
2019-01-06T16:25:27.477Z,0.00
2019-01-06T16:26:27.715Z,0.00
2019-01-06T16:27:27.815Z,0.00
2019-01-06T16:28:28.038Z,0.00
2019-01-06T16:29:30.077Z,0.00
2019-01-06T16:30:36.080Z,0.00
2019-01-06T16:31:30.035Z,0.00
2019-01-06T16:32:32.538Z,0.00
2019-01-06T16:33:28.741Z,0.00
2019-01-06T16:34:30.524Z,0.00
2019-01-06T16:35:29.108Z,0.00
2019-01-06T16:36:33.053Z,0.00
2019-01-06T16:37:29.487Z,0.00
2019-01-06T16:38:29.735Z,0.00
2019-01-06T16:39:45.540Z,0.00
2019-01-06T16:40:31.556Z,0.00
2019-01-06T16:41:32.031Z,0.00
2019-01-06T16:42:34.043Z,0.00
2019-01-06T16:43:36.064Z,0.00
2019-01-06T16:44:30.689Z,0.00
2019-01-06T16:45:46.565Z,0.00
2019-01-06T16:46:32.019Z,0.00
2019-01-06T16:47:35.031Z,0.00
2019-01-06T16:48:35.031Z,0.00
2019-01-06T16:49:31.606Z,0.00
2019-01-06T16:50:33.526Z,0.00
2019-01-06T16:51:36.529Z,0.00
2019-01-06T16:52:32.179Z,0.00
2019-01-06T16:53:32.351Z,0.00
2019-01-06T16:54:34.558Z,0.00
2019-01-06T16:55:32.740Z,0.00
2019-01-06T16:56:33.955Z,0.00
2019-01-06T16:57:35.044Z,0.00
2019-01-06T16:58:41.031Z,0.00
2019-01-06T16:59:33.491Z,0.00
2019-01-06T17:00:35.573Z,0.00
2019-01-06T17:01:33.923Z,0.00
2019-01-06T17:02:34.127Z,0.00
2019-01-06T17:03:34.390Z,0.00
2019-01-06T17:04:39.428Z,0.00
2019-01-06T17:05:36.667Z,0.00
2019-01-06T17:06:42.565Z,0.00
2019-01-06T17:07:39.381Z,0.00
2019-01-06T17:08:37.026Z,0.00
2019-01-06T17:09:36.623Z,0.00
2019-01-06T17:10:40.316Z,0.00
2019-01-06T17:11:37.528Z,0.00
2019-01-06T17:12:39.535Z,0.00
2019-01-06T17:13:42.565Z,0.00
2019-01-06T17:14:40.041Z,0.00
2019-01-06T17:15:38.031Z,0.00
2019-01-06T17:16:38.036Z,0.00
2019-01-06T17:17:36.700Z,0.00
2019-01-06T17:18:36.908Z,0.00
2019-01-06T17:19:39.028Z,0.00
2019-01-06T17:20:37.253Z,0.00
2019-01-06T17:21:39.083Z,0.00
2019-01-06T17:23:00.561Z,0.00
2019-01-06T17:23:37.886Z,0.00
2019-01-06T17:24:38.178Z,0.00
2019-01-06T17:25:38.326Z,0.00
2019-01-06T17:26:38.538Z,0.00
2019-01-06T17:27:40.563Z,0.00
2019-01-06T17:28:41.504Z,0.00
2019-01-06T17:29:42.101Z,0.00
2019-01-06T17:30:55.027Z,0.00
2019-01-06T17:32:05.651Z,0.00
2019-01-06T17:32:41.535Z,0.00
2019-01-06T17:33:41.553Z,0.00
2019-01-06T17:34:41.543Z,0.00
2019-01-06T17:35:42.334Z,0.00
2019-01-06T17:36:42.031Z,0.00
2019-01-06T17:37:43.067Z,0.00
2019-01-06T17:38:42.085Z,0.00
2019-01-06T17:39:42.529Z,0.00
2019-01-06T17:40:41.976Z,0.00
2019-01-06T17:42:03.987Z,0.00
2019-01-06T17:42:57.037Z,0.00
2019-01-06T17:43:43.095Z,0.00
2019-01-06T17:44:42.704Z,0.00
2019-01-06T17:45:42.812Z,0.00
2019-01-06T17:46:43.564Z,0.00
2019-01-06T17:47:45.533Z,0.00
2019-01-06T17:48:43.254Z,0.00
2019-01-06T17:49:45.027Z,0.00
2019-01-06T17:50:43.514Z,0.00
2019-01-06T17:51:58.534Z,0.00
2019-01-06T17:52:58.540Z,0.00
2019-01-06T17:53:47.001Z,0.00
2019-01-06T17:54:44.522Z,0.00
2019-01-06T17:55:45.047Z,0.00
2019-01-06T17:57:13.984Z,0.00
2019-01-06T17:58:05.436Z,0.00
2019-01-06T17:58:45.565Z,0.00
2019-01-06T17:59:43.806Z,0.00
2019-01-06T18:00:45.587Z,0.00
2019-01-06T18:01:45.987Z,0.00
2019-01-06T18:02:47.501Z,0.00
2019-01-06T18:03:46.993Z,0.00
2019-01-06T18:04:46.572Z,0.00
2019-01-06T18:06:00.563Z,0.00
2019-01-06T18:06:52.595Z,0.00
2019-01-06T18:07:48.994Z,0.00
2019-01-06T18:08:49.076Z,0.00
2019-01-06T18:09:47.379Z,0.00
2019-01-06T18:10:50.489Z,0.00
2019-01-06T18:11:47.686Z,0.00
2019-01-06T18:13:08.563Z,0.00
2019-01-06T18:13:54.113Z,0.00
2019-01-06T18:15:11.479Z,0.00
2019-01-06T18:15:54.030Z,0.00
2019-01-06T18:16:48.512Z,0.00
2019-01-06T18:17:54.559Z,0.00
2019-01-06T18:18:50.484Z,0.00
2019-01-06T18:19:55.075Z,0.00
2019-01-06T18:21:15.047Z,0.00
2019-01-06T18:21:49.504Z,0.00
2019-01-06T18:23:03.581Z,0.00
2019-01-06T18:23:50.549Z,0.00
2019-01-06T18:24:48.814Z,0.00
2019-01-06T18:25:50.068Z,0.00
2019-01-06T18:26:57.049Z,0.00
2019-01-06T18:28:05.584Z,0.00
2019-01-06T18:28:54.000Z,0.00
2019-01-06T18:29:56.086Z,0.00
2019-01-06T18:31:05.035Z,0.00
2019-01-06T18:32:05.105Z,0.00
2019-01-06T18:32:51.491Z,0.00
2019-01-06T18:33:50.722Z,0.00
2019-01-06T18:34:53.502Z,0.00
2019-01-06T18:36:22.888Z,0.00
2019-01-06T18:37:14.491Z,0.00
2019-01-06T18:39:50.263Z,0.00
2019-01-06T18:40:59.984Z,0.00
2019-01-06T18:41:24.358Z,0.00
2019-01-06T18:44:34.482Z,0.00
2019-01-06T18:45:14.594Z,0.00
2019-01-06T18:46:12.744Z,0.00
2019-01-06T18:47:14.655Z,0.00
2019-01-06T18:48:14.653Z,0.00
2019-01-06T18:49:16.444Z,0.00
2019-01-06T18:50:13.113Z,0.00
2019-01-06T18:51:14.582Z,0.00
2019-01-06T18:52:34.058Z,0.00
2019-01-06T18:53:16.555Z,0.00
2019-01-06T18:54:12.254Z,0.00
2019-01-06T18:55:15.162Z,0.00
2019-01-06T18:56:15.119Z,0.00
2019-01-06T18:57:12.731Z,0.00
2019-01-06T18:58:13.980Z,0.00
2019-01-06T19:01:08.362Z,0.00
2019-01-06T19:01:49.570Z,0.00
2019-01-06T19:02:49.710Z,0.00
2019-01-06T19:04:03.684Z,0.00
2019-01-06T19:05:03.023Z,0.00
2019-01-06T19:05:55.833Z,0.00
2019-01-06T19:06:51.377Z,0.00
2019-01-06T19:07:48.664Z,0.00
2019-01-06T19:08:51.217Z,0.00
2019-01-06T19:09:49.740Z,0.00
2019-01-06T19:11:11.671Z,0.00
2019-01-06T19:12:03.721Z,0.00
2019-01-06T19:12:51.165Z,0.00
2019-01-06T19:13:55.661Z,0.00
2019-01-06T19:14:50.662Z,0.00
2019-01-06T19:15:54.162Z,0.00
2019-01-06T19:16:50.241Z,0.00
2019-01-06T19:17:52.667Z,0.00
2019-01-06T19:18:49.597Z,0.00
2019-01-06T19:19:58.727Z,0.00
2019-01-06T19:21:11.528Z,0.00
2019-01-06T19:21:51.178Z,0.00
2019-01-06T19:22:53.721Z,0.00
2019-01-06T19:23:55.842Z,0.00
2019-01-06T19:24:54.677Z,0.00
2019-01-06T19:25:52.168Z,0.00
2019-01-06T19:27:27.851Z,0.00
2019-01-06T19:27:58.753Z,0.00
2019-01-06T19:29:14.659Z,0.00
2019-01-06T19:30:13.113Z,0.00
2019-01-06T19:30:57.770Z,0.00
2019-01-06T19:31:53.990Z,0.00
2019-01-06T19:33:16.209Z,0.00
2019-01-06T19:33:59.711Z,0.00
2019-01-06T19:35:07.773Z,0.00
2019-01-06T19:36:15.691Z,0.00
2019-01-06T19:37:15.219Z,0.00
2019-01-06T19:37:52.612Z,0.00
2019-01-06T19:38:53.852Z,0.00
2019-01-06T19:39:55.750Z,0.00
2019-01-06T19:40:56.753Z,0.00
2019-01-06T19:42:16.226Z,0.00
2019-01-06T19:42:57.215Z,0.00
2019-01-06T19:43:57.161Z,0.00
2019-01-06T19:44:55.706Z,0.00
2019-01-06T19:45:53.974Z,0.00
2019-01-06T19:47:11.147Z,0.00
2019-01-06T19:48:10.224Z,0.00
2019-01-06T19:49:16.158Z,0.00
2019-01-06T19:49:57.236Z,0.00
2019-01-06T19:52:38.820Z,0.00
2019-01-06T19:53:29.913Z,0.00
2019-01-06T19:54:31.519Z,0.00
2019-01-06T19:55:27.736Z,0.00
2019-01-06T19:56:27.895Z,0.00
2019-01-06T19:57:31.945Z,0.00
2019-01-06T19:58:30.406Z,0.00
2019-01-06T20:01:10.354Z,0.00
2019-01-06T20:02:30.529Z,0.00
2019-01-06T20:03:02.501Z,0.00
2019-01-06T20:04:03.472Z,0.00
2019-01-06T20:05:03.482Z,0.00
2019-01-06T20:06:04.156Z,0.00
2019-01-06T20:07:10.072Z,0.00
2019-01-06T20:08:05.838Z,0.00
2019-01-06T20:09:26.633Z,0.00
2019-01-06T20:11:41.878Z,0.00
2019-01-06T20:12:42.319Z,0.00
2019-01-06T20:13:40.147Z,0.00
2019-01-06T20:16:39.851Z,0.00
2019-01-06T20:17:09.028Z,0.00
2019-01-06T20:18:13.827Z,0.00
2019-01-06T20:19:34.887Z,0.00
2019-01-06T20:20:38.342Z,0.00
2019-01-06T20:23:11.280Z,0.00
2019-01-06T20:23:45.866Z,0.00
2019-01-06T20:24:42.736Z,0.00
2019-01-06T20:27:35.500Z,0.00
2019-01-06T20:30:20.180Z,0.00
2019-01-06T20:30:46.516Z,0.00
2019-01-06T20:31:59.114Z,0.00
2019-01-06T20:32:49.664Z,0.00
2019-01-06T20:33:50.832Z,0.00
2019-01-06T20:34:54.670Z,0.00
2019-01-06T20:36:11.136Z,0.00
2019-01-06T20:36:50.170Z,0.00
2019-01-06T20:37:51.168Z,0.00
2019-01-06T20:40:29.865Z,0.00
2019-01-06T20:41:24.383Z,0.00
2019-01-06T20:42:57.501Z,0.00
2019-01-06T20:45:02.976Z,0.00
2019-01-06T20:45:55.216Z,0.00
2019-01-06T20:46:57.498Z,0.00
2019-01-06T20:47:55.945Z,0.00
2019-01-06T20:49:10.935Z,0.00
2019-01-06T20:51:46.343Z,0.00
2019-01-06T20:52:29.847Z,0.00
2019-01-06T20:55:23.507Z,0.00
2019-01-06T20:56:07.449Z,0.00
2019-01-06T20:57:22.917Z,0.00
2019-01-06T20:58:29.706Z,0.00
2019-01-06T20:59:16.443Z,0.00
2019-01-06T21:01:49.152Z,0.00
2019-01-06T21:04:09.392Z,0.00